GW3756 Weather Reports


Display with metric or nautical units.
time (UTC)temp
F
wind
direction
speed
MPH
gust
MPH
rain 1hr
in
rain 24hr
in
rain mn
in
humidity
%
barometer
mb
20240530090516 40 0.0 0.0 0.00 0.00 0.00 95 1044.4
20240530085516 39 0.0 0.0 0.00 0.00 0.00 95 1044.4
20240530084516 39 0.0 0.0 0.00 0.00 0.00 94 1044.3
20240530083516 40 0.0 0.0 0.00 0.00 0.00 94 1044.3
20240530082516 40 0.0 0.0 0.00 0.00 0.00 94 1044.3
20240530081516 40 0.0 0.0 0.00 0.00 0.00 94 1044.1
20240530080516 40 0.0 0.0 0.00 0.00 0.00 92 1044.1
20240530075516 40 0.0 0.0 0.00 0.00 0.00 92 1044.1
20240530074516 40 0.0 0.0 0.00 0.00 0.00 92 1043.9
20240530073516 41 0.0 0.0 0.00 0.00 0.00 91 1043.9
20240530072517 41 0.0 0.0 0.00 0.00 0.00 89 1043.8
20240530071516 42 0.0 0.0 0.00 0.00 0.00 88 1043.7
20240530070516 42 0.0 0.0 0.00 0.00 0.00 87 1043.8
20240530065516 42 0.0 0.0 0.00 0.00 0.00 87 1043.7
20240530064517 42 0.0 0.0 0.00 0.00 0.00 88 1043.6
20240530063517 42 0.0 0.0 0.00 0.00 0.00 87 1043.5
20240530062515 42 0.0 0.0 0.00 0.00 0.00 87 1043.5
20240530061517 42 0.0 0.0 0.00 0.00 0.00 86 1043.5
20240530060516 43 0.0 0.0 0.00 0.00 0.00 85 1043.6
20240530055515 43 0.0 0.0 0.00 0.00 0.00 84 1043.4
20240530054515 43 0.0 0.0 0.00 0.00 0.00 84 1043.4
20240530053516 43 0.0 0.0 0.00 0.00 0.00 85 1043.4
20240530052516 43 0.0 0.0 0.00 0.00 0.00 86 1043.4
20240530051518 43 0.0 0.0 0.00 0.00 0.00 87 1043.3
20240530050518 43 0.0 0.0 0.00 0.00 0.00 87 1043.2
20240530045515 43 0.0 0.0 0.00 0.00 0.00 87 1043.1
20240530044515 44 0.0 0.0 0.00 0.00 0.00 87 1043.1
20240530043516 44 0.0 0.0 0.00 0.00 0.00 86 1043.0
20240530042516 44 0.0 0.0 0.00 0.00 0.00 85 1042.9
20240530041517 45 0.0 0.0 0.00 0.00 0.00 83 1042.9
20240530040517 46 0.0 0.0 0.00 0.00 0.00 81 1042.8
20240530035517 46 336 0.0 1.0 0.00 0.00 0.00 81 1042.9
20240530034517 46 0.0 0.0 0.00 0.00 0.00 81 1042.8
20240530033515 46 0.0 0.0 0.00 0.00 0.00 81 1042.9
20240530032517 45 336 0.0 1.0 0.00 0.00 0.00 82 1042.8
20240530031517 46 0.0 0.0 0.00 0.00 0.00 81 1042.7
20240530030515 47 336 0.0 1.0 0.00 0.00 0.00 79 1042.7
20240530025517 47 336 0.0 1.0 0.00 0.00 0.00 78 1042.6
20240530024515 48 337 1.0 3.0 0.00 0.00 0.00 77 1042.7
20240530023516 49 0.0 0.0 0.00 0.00 0.00 74 1042.8
20240530022516 50 356 1.0 6.0 0.00 0.00 0.00 70 1042.7
20240530021516 51 13 1.0 3.0 0.00 0.00 0.00 70 1042.7
20240530020517 51 5 2.0 7.0 0.00 0.00 0.00 69 1042.6
20240530015517 51 13 1.0 4.0 0.00 0.00 0.00 70 1042.6
20240530014516 51 2 2.0 9.0 0.00 0.00 0.00 69 1042.5
20240530013516 51 5 2.0 6.0 0.00 0.00 0.00 68 1042.5
20240530012515 51 8 2.0 4.0 0.00 0.00 0.00 66 1042.5
20240530011516 51 9 3.0 8.0 0.00 0.00 0.00 67 1042.5
20240530010516 51 7 2.0 7.0 0.00 0.00 0.00 63 1042.5
20240530005516 51 18 2.0 7.0 0.00 0.00 0.00 59 1042.7
20240530004516 51 15 1.0 3.0 0.00 0.00 0.00 61 1042.7
20240530003518 52 10 3.0 7.0 0.00 0.01 0.00 62 1042.5
20240530002516 52 2 3.0 8.0 0.00 0.01 0.00 60 1042.6
20240530001515 52 13 4.0 9.0 0.00 0.01 0.00 57 1042.5
20240530000515 53 12 4.0 11.0 0.00 0.02 0.00 57 1042.4
20240529235515 53 7 4.0 8.0 0.00 0.04 0.00 60 1042.4
20240529234515 53 4 7.0 13.0 0.00 0.07 0.00 60 1042.5
20240529233516 53 3 5.0 10.0 0.00 0.09 0.00 57 1042.5
20240529232516 53 5 3.0 9.0 0.00 0.12 0.00 57 1042.5
20240529231516 53 13 3.0 10.0 0.00 0.14 0.00 54 1042.6
20240529230516 53 7 3.0 9.0 0.00 0.15 0.00 57 1042.8
20240529225515 54 20 4.0 11.0 0.00 0.15 0.00 54 1042.7
20240529224515 54 5 4.0 10.0 0.00 0.15 0.00 51 1042.8
20240529223516 54 9 2.0 10.0 0.00 0.15 0.00 53 1042.5
20240529222516 55 8 5.0 18.0 0.00 0.15 0.00 52 1042.6
20240529221516 54 14 4.0 14.0 0.00 0.15 0.00 53 1042.5
20240529220517 54 10 4.0 13.0 0.00 0.15 0.00 55 1042.5
20240529215526 55 8 4.0 15.0 0.00 0.15 0.00 58 1042.5
20240529214517 54 4 6.0 16.0 0.00 0.15 0.00 57 1042.4
20240529213516 54 3 7.0 14.0 0.00 0.15 0.00 55 1042.4
20240529212517 55 359 5.0 15.0 0.00 0.15 0.00 56 1042.5
20240529211516 55 1 5.0 11.0 0.00 0.15 0.00 60 1042.4
20240529210517 54 356 8.0 16.0 0.00 0.15 0.00 61 1042.3
20240529205516 55 6 7.0 18.0 0.00 0.15 0.00 57 1042.4
20240529204516 55 7 5.0 16.0 0.00 0.15 0.00 59 1042.5
20240529203515 55 17 6.0 14.0 0.00 0.15 0.00 61 1042.4
20240529202516 56 4 6.0 13.0 0.00 0.15 0.00 58 1042.4
20240529201516 55 17 8.0 18.0 0.00 0.15 0.00 59 1042.4
20240529200516 56 3 6.0 11.0 0.00 0.15 0.00 59 1042.2
20240529195516 56 12 6.0 17.0 0.00 0.15 0.00 61 1042.3
20240529194517 56 359 7.0 17.0 0.00 0.15 0.00 64 1042.4
20240529193516 56 13 7.0 17.0 0.00 0.15 0.00 67 1042.2
20240529192517 55 1 6.0 16.0 0.00 0.15 0.00 73 1042.1
20240529191515 56 12 5.0 11.0 0.00 0.15 0.00 73 1042.0
20240529190516 56 19 6.0 15.0 0.00 0.15 0.00 71 1041.9
20240529185517 56 12 6.0 16.0 0.00 0.15 0.00 72 1041.8
20240529184516 56 5 5.0 17.0 0.00 0.15 0.00 74 1041.6
20240529183516 56 18 6.0 14.0 0.00 0.15 0.00 74 1041.6
20240529182517 56 8 4.0 16.0 0.00 0.15 0.00 75 1041.4
20240529181516 56 0 6.0 16.0 0.00 0.15 0.00 76 1041.3
20240529180515 55 2 7.0 17.0 0.00 0.15 0.00 74 1041.3
20240529175516 56 360 6.0 16.0 0.00 0.15 0.00 75 1041.2
20240529174515 56 357 7.0 21.0 0.00 0.15 0.00 75 1041.1
20240529173515 56 5 8.0 17.0 0.00 0.15 0.00 76 1041.1
20240529172515 55 12 8.0 19.0 0.00 0.15 0.00 78 1041.2
20240529171515 56 8 7.0 18.0 0.00 0.15 0.00 78 1041.0
20240529170517 56 355 6.0 21.0 0.00 0.15 0.00 78 1041.0
20240529165516 57 8 6.0 13.0 0.00 0.15 0.00 78 1041.0
20240529164517 57 12 6.0 15.0 0.00 0.15 0.00 78 1040.9
20240529163517 57 18 4.0 19.0 0.00 0.15 0.00 80 1040.8
20240529162516 56 2 6.0 15.0 0.00 0.15 0.00 81 1040.9
20240529161516 55 17 6.0 13.0 0.00 0.15 0.00 83 1040.8
20240529160517 56 9 7.0 18.0 0.00 0.15 0.00 84 1040.8
20240529155515 56 5 6.0 13.0 0.00 0.15 0.00 85 1040.7
20240529154516 57 8 7.0 16.0 0.00 0.15 0.00 82 1040.6
20240529153517 58 10 5.0 11.0 0.00 0.15 0.00 81 1040.5
20240529152516 57 13 6.0 13.0 0.00 0.15 0.00 81 1040.4
20240529151516 57 2 6.0 13.0 0.00 0.15 0.00 82 1040.2
20240529150517 57 4 7.0 18.0 0.00 0.15 0.00 82 1040.1
20240529145515 58 7 6.0 14.0 0.00 0.15 0.00 85 1039.9
20240529144518 59 1 4.0 10.0 0.00 0.15 0.00 87 1039.6
20240529143518 58 1 5.0 13.0 0.00 0.15 0.00 90 1039.6
20240529142517 58 8 4.0 13.0 0.00 0.15 0.00 90 1039.3
20240529141515 57 358 3.0 9.0 0.00 0.16 0.00 91 1039.3
20240529140516 57 7 6.0 17.0 0.00 0.16 0.00 92 1039.2
20240529135516 57 16 5.0 11.0 0.00 0.16 0.00 91 1039.1
20240529134516 57 10 4.0 10.0 0.00 0.16 0.00 91 1039.0
20240529133516 57 13 4.0 11.0 0.00 0.18 0.00 91 1038.9
20240529132516 57 1 5.0 11.0 0.00 0.18 0.00 91 1038.8
20240529131516 57 6 3.0 7.0 0.00 0.18 0.00 90 1038.6
20240529130517 57 16 3.0 13.0 0.00 0.19 0.00 90 1038.6
20240529125516 57 4 3.0 9.0 0.00 0.19 0.00 90 1038.5
20240529124515 56 3 4.0 13.0 0.00 0.19 0.00 91 1038.6
20240529123515 56 12 3.0 9.0 0.00 0.19 0.00 91 1038.6
20240529122516 56 12 4.0 10.0 0.00 0.19 0.00 91 1038.4
20240529121517 56 13 3.0 11.0 0.00 0.19 0.00 91 1038.4
20240529120517 56 2 5.0 10.0 0.00 0.19 0.00 92 1038.1
20240529115516 56 9 4.0 9.0 0.00 0.19 0.00 94 1038.1
20240529114517 56 1 1.0 3.0 0.00 0.19 0.00 94 1038.0
20240529113515 55 6 2.0 8.0 0.00 0.19 0.00 94 1037.9
20240529112517 55 8 4.0 9.0 0.00 0.19 0.00 95 1037.8
20240529111516 55 7 3.0 8.0 0.00 0.19 0.00 96 1037.9
20240529110517 55 10 3.0 10.0 0.00 0.19 0.00 97 1037.9
20240529105517 55 17 3.0 11.0 0.00 0.19 0.00 97 1037.8
20240529104516 55 360 2.0 7.0 0.00 0.19 0.00 97 1037.6
20240529103515 55 8 1.0 4.0 0.00 0.19 0.00 96 1037.6
20240529102517 54 358 2.0 6.0 0.00 0.19 0.00 96 1037.6
20240529101517 54 7 2.0 4.0 0.00 0.19 0.00 95 1037.4
20240529100517 54 2 1.0 3.0 0.00 0.19 0.00 95 1037.4
20240529095517 54 13 1.0 4.0 0.00 0.19 0.00 96 1037.4
20240529094517 54 1 3.0 10.0 0.00 0.19 0.00 96 1037.3
20240529093517 55 4 2.0 6.0 0.00 0.19 0.00 97 1037.1
20240529092515 55 6 0.0 3.0 0.00 0.19 0.00 98 1037.1
20240529091515 55 16 0.0 1.0 0.00 0.19 0.00 99 1037.0